sensor_id;sensor_type;location;lat;lon;timestamp;temperature;humidity
78876;DHT22;68253;52.506;5.486;2023-07-13T00:02:10;17.40;70.50
78876;DHT22;68253;52.506;5.486;2023-07-13T00:04:37;17.50;70.50
78876;DHT22;68253;52.506;5.486;2023-07-13T00:07:03;17.50;70.50
78876;DHT22;68253;52.506;5.486;2023-07-13T00:09:30;17.50;70.50
78876;DHT22;68253;52.506;5.486;2023-07-13T00:11:57;17.50;70.50
78876;DHT22;68253;52.506;5.486;2023-07-13T00:14:25;17.50;70.60
78876;DHT22;68253;52.506;5.486;2023-07-13T00:16:52;17.50;70.60
78876;DHT22;68253;52.506;5.486;2023-07-13T00:19:19;17.50;70.70
78876;DHT22;68253;52.506;5.486;2023-07-13T00:21:45;17.50;70.60
78876;DHT22;68253;52.506;5.486;2023-07-13T00:24:14;17.50;70.80
78876;DHT22;68253;52.506;5.486;2023-07-13T00:26:41;17.60;70.80
78876;DHT22;68253;52.506;5.486;2023-07-13T00:29:12;17.60;70.90
78876;DHT22;68253;52.506;5.486;2023-07-13T00:31:38;17.60;70.80
78876;DHT22;68253;52.506;5.486;2023-07-13T00:34:05;17.60;71.00
78876;DHT22;68253;52.506;5.486;2023-07-13T00:36:31;17.50;71.00
78876;DHT22;68253;52.506;5.486;2023-07-13T00:38:58;17.50;71.10
78876;DHT22;68253;52.506;5.486;2023-07-13T00:41:24;17.50;71.20
78876;DHT22;68253;52.506;5.486;2023-07-13T00:43:50;17.50;71.20
78876;DHT22;68253;52.506;5.486;2023-07-13T00:48:45;17.50;71.40
78876;DHT22;68253;52.506;5.486;2023-07-13T00:51:12;17.50;71.40
78876;DHT22;68253;52.506;5.486;2023-07-13T00:53:41;17.50;71.30
78876;DHT22;68253;52.506;5.486;2023-07-13T00:56:07;17.50;71.50
78876;DHT22;68253;52.506;5.486;2023-07-13T00:58:35;17.50;71.50
78876;DHT22;68253;52.506;5.486;2023-07-13T01:01:01;17.50;71.60
78876;DHT22;68253;52.506;5.486;2023-07-13T01:03:27;17.50;71.70
78876;DHT22;68253;52.506;5.486;2023-07-13T01:05:55;17.50;71.70
78876;DHT22;68253;52.506;5.486;2023-07-13T01:08:22;17.50;71.70
78876;DHT22;68253;52.506;5.486;2023-07-13T01:10:53;17.50;71.70
78876;DHT22;68253;52.506;5.486;2023-07-13T01:13:20;17.60;71.70
78876;DHT22;68253;52.506;5.486;2023-07-13T01:15:48;17.60;71.70
78876;DHT22;68253;52.506;5.486;2023-07-13T01:18:21;17.60;71.60
78876;DHT22;68253;52.506;5.486;2023-07-13T01:20:59;17.60;71.60
78876;DHT22;68253;52.506;5.486;2023-07-13T01:23:27;17.60;71.70
78876;DHT22;68253;52.506;5.486;2023-07-13T01:25:55;17.50;71.70
78876;DHT22;68253;52.506;5.486;2023-07-13T01:28:23;17.50;71.80
78876;DHT22;68253;52.506;5.486;2023-07-13T01:30:54;17.50;71.70
78876;DHT22;68253;52.506;5.486;2023-07-13T01:33:22;17.50;71.70
78876;DHT22;68253;52.506;5.486;2023-07-13T01:35:50;17.50;71.70
78876;DHT22;68253;52.506;5.486;2023-07-13T01:38:20;17.50;71.80
78876;DHT22;68253;52.506;5.486;2023-07-13T01:40:47;17.50;71.70
78876;DHT22;68253;52.506;5.486;2023-07-13T01:43:13;17.50;71.70
78876;DHT22;68253;52.506;5.486;2023-07-13T01:45:39;17.50;71.70
78876;DHT22;68253;52.506;5.486;2023-07-13T01:48:05;17.50;71.80
78876;DHT22;68253;52.506;5.486;2023-07-13T01:50:34;17.50;71.90
78876;DHT22;68253;52.506;5.486;2023-07-13T01:53:01;17.50;71.90
78876;DHT22;68253;52.506;5.486;2023-07-13T01:55:29;17.50;72.00
78876;DHT22;68253;52.506;5.486;2023-07-13T01:57:56;17.50;72.00
78876;DHT22;68253;52.506;5.486;2023-07-13T02:00:22;17.50;72.00
78876;DHT22;68253;52.506;5.486;2023-07-13T02:02:49;17.60;72.00
78876;DHT22;68253;52.506;5.486;2023-07-13T02:05:15;17.50;72.10
78876;DHT22;68253;52.506;5.486;2023-07-13T02:07:42;17.50;72.10
78876;DHT22;68253;52.506;5.486;2023-07-13T02:10:09;17.50;72.30
78876;DHT22;68253;52.506;5.486;2023-07-13T02:12:37;17.50;72.30
78876;DHT22;68253;52.506;5.486;2023-07-13T02:15:04;17.50;72.30
78876;DHT22;68253;52.506;5.486;2023-07-13T02:17:31;17.50;72.30
78876;DHT22;68253;52.506;5.486;2023-07-13T02:19:58;17.40;72.40
78876;DHT22;68253;52.506;5.486;2023-07-13T02:22:24;17.40;72.40
78876;DHT22;68253;52.506;5.486;2023-07-13T02:24:50;17.50;72.40
78876;DHT22;68253;52.506;5.486;2023-07-13T02:27:18;17.50;72.40
78876;DHT22;68253;52.506;5.486;2023-07-13T02:29:45;17.50;72.30
78876;DHT22;68253;52.506;5.486;2023-07-13T02:32:11;17.40;72.20
78876;DHT22;68253;52.506;5.486;2023-07-13T02:34:40;17.40;72.20
78876;DHT22;68253;52.506;5.486;2023-07-13T02:37:06;17.40;72.20
78876;DHT22;68253;52.506;5.486;2023-07-13T02:39:34;17.40;72.10
78876;DHT22;68253;52.506;5.486;2023-07-13T02:42:00;17.40;72.10
78876;DHT22;68253;52.506;5.486;2023-07-13T02:44:27;17.30;72.10
78876;DHT22;68253;52.506;5.486;2023-07-13T02:46:53;17.20;72.10
78876;DHT22;68253;52.506;5.486;2023-07-13T02:49:19;17.20;72.30
78876;DHT22;68253;52.506;5.486;2023-07-13T02:51:46;17.20;72.30
78876;DHT22;68253;52.506;5.486;2023-07-13T02:54:12;17.10;72.30
78876;DHT22;68253;52.506;5.486;2023-07-13T02:56:40;17.10;72.30
78876;DHT22;68253;52.506;5.486;2023-07-13T02:59:06;17.10;72.30
78876;DHT22;68253;52.506;5.486;2023-07-13T03:01:32;17.00;72.40
78876;DHT22;68253;52.506;5.486;2023-07-13T03:04:01;17.00;72.40
78876;DHT22;68253;52.506;5.486;2023-07-13T03:06:31;17.00;72.50
78876;DHT22;68253;52.506;5.486;2023-07-13T03:08:57;17.00;72.50
78876;DHT22;68253;52.506;5.486;2023-07-13T03:11:24;17.00;72.50
78876;DHT22;68253;52.506;5.486;2023-07-13T03:14:01;17.00;72.50
78876;DHT22;68253;52.506;5.486;2023-07-13T03:16:31;17.00;72.50
78876;DHT22;68253;52.506;5.486;2023-07-13T03:18:58;17.00;72.50
78876;DHT22;68253;52.506;5.486;2023-07-13T03:21:25;17.00;72.50
78876;DHT22;68253;52.506;5.486;2023-07-13T03:23:51;17.00;72.40
78876;DHT22;68253;52.506;5.486;2023-07-13T03:26:19;17.00;72.40
78876;DHT22;68253;52.506;5.486;2023-07-13T03:28:46;17.00;72.30
78876;DHT22;68253;52.506;5.486;2023-07-13T03:31:20;17.00;72.40
78876;DHT22;68253;52.506;5.486;2023-07-13T03:33:47;17.10;72.30
78876;DHT22;68253;52.506;5.486;2023-07-13T03:36:18;17.10;72.30
78876;DHT22;68253;52.506;5.486;2023-07-13T03:38:50;17.10;72.20
78876;DHT22;68253;52.506;5.486;2023-07-13T03:41:20;17.10;72.10
78876;DHT22;68253;52.506;5.486;2023-07-13T03:43:48;17.10;72.00
78876;DHT22;68253;52.506;5.486;2023-07-13T03:46:17;17.10;72.10
78876;DHT22;68253;52.506;5.486;2023-07-13T03:48:46;17.00;72.10
78876;DHT22;68253;52.506;5.486;2023-07-13T03:51:14;17.00;72.10
78876;DHT22;68253;52.506;5.486;2023-07-13T03:53:43;17.00;72.10
78876;DHT22;68253;52.506;5.486;2023-07-13T03:56:12;17.00;72.00
78876;DHT22;68253;52.506;5.486;2023-07-13T03:58:42;17.00;72.00
78876;DHT22;68253;52.506;5.486;2023-07-13T04:01:18;17.00;72.00
78876;DHT22;68253;52.506;5.486;2023-07-13T04:03:45;17.00;71.80
78876;DHT22;68253;52.506;5.486;2023-07-13T04:06:26;17.00;71.80
78876;DHT22;68253;52.506;5.486;2023-07-13T04:08:55;17.00;71.70
78876;DHT22;68253;52.506;5.486;2023-07-13T04:11:23;17.00;71.60
78876;DHT22;68253;52.506;5.486;2023-07-13T04:13:50;17.00;71.50
78876;DHT22;68253;52.506;5.486;2023-07-13T04:16:18;17.00;71.40
78876;DHT22;68253;52.506;5.486;2023-07-13T04:18:46;17.00;71.30
78876;DHT22;68253;52.506;5.486;2023-07-13T04:21:12;16.90;71.00
78876;DHT22;68253;52.506;5.486;2023-07-13T04:23:39;16.90;70.80
78876;DHT22;68253;52.506;5.486;2023-07-13T04:26:06;16.90;70.80
78876;DHT22;68253;52.506;5.486;2023-07-13T04:28:33;16.90;70.80
78876;DHT22;68253;52.506;5.486;2023-07-13T04:30:59;16.90;70.80
78876;DHT22;68253;52.506;5.486;2023-07-13T04:33:26;16.90;70.80
78876;DHT22;68253;52.506;5.486;2023-07-13T04:35:54;16.80;70.80
78876;DHT22;68253;52.506;5.486;2023-07-13T04:38:23;16.90;70.80
78876;DHT22;68253;52.506;5.486;2023-07-13T04:40:51;16.90;70.80
78876;DHT22;68253;52.506;5.486;2023-07-13T04:43:18;16.90;70.90
78876;DHT22;68253;52.506;5.486;2023-07-13T04:45:44;16.90;70.90
78876;DHT22;68253;52.506;5.486;2023-07-13T04:48:10;17.00;71.00
78876;DHT22;68253;52.506;5.486;2023-07-13T04:50:37;17.00;71.00
78876;DHT22;68253;52.506;5.486;2023-07-13T04:53:04;17.00;71.00
78876;DHT22;68253;52.506;5.486;2023-07-13T04:55:31;17.00;71.20
78876;DHT22;68253;52.506;5.486;2023-07-13T04:57:57;17.00;71.20
78876;DHT22;68253;52.506;5.486;2023-07-13T05:00:29;17.10;71.20
78876;DHT22;68253;52.506;5.486;2023-07-13T05:02:56;17.20;71.20
78876;DHT22;68253;52.506;5.486;2023-07-13T05:05:24;17.20;71.10
78876;DHT22;68253;52.506;5.486;2023-07-13T05:07:51;17.20;71.10
78876;DHT22;68253;52.506;5.486;2023-07-13T05:10:17;17.30;71.10
78876;DHT22;68253;52.506;5.486;2023-07-13T05:12:44;17.40;71.00
78876;DHT22;68253;52.506;5.486;2023-07-13T05:15:11;17.50;71.00
78876;DHT22;68253;52.506;5.486;2023-07-13T05:17:37;17.50;71.00
78876;DHT22;68253;52.506;5.486;2023-07-13T05:20:06;17.60;70.90
78876;DHT22;68253;52.506;5.486;2023-07-13T05:22:32;17.70;70.80
78876;DHT22;68253;52.506;5.486;2023-07-13T05:25:03;17.70;70.70
78876;DHT22;68253;52.506;5.486;2023-07-13T05:27:29;17.80;70.80
78876;DHT22;68253;52.506;5.486;2023-07-13T05:29:55;17.80;70.80
78876;DHT22;68253;52.506;5.486;2023-07-13T05:32:21;17.90;70.70
78876;DHT22;68253;52.506;5.486;2023-07-13T05:34:48;18.00;70.50
78876;DHT22;68253;52.506;5.486;2023-07-13T05:37:14;18.00;70.50
78876;DHT22;68253;52.506;5.486;2023-07-13T05:39:40;18.00;70.60
78876;DHT22;68253;52.506;5.486;2023-07-13T05:42:06;18.00;70.70
78876;DHT22;68253;52.506;5.486;2023-07-13T05:44:33;18.00;70.70
78876;DHT22;68253;52.506;5.486;2023-07-13T05:46:59;18.10;70.70
78876;DHT22;68253;52.506;5.486;2023-07-13T05:49:25;18.10;70.80
78876;DHT22;68253;52.506;5.486;2023-07-13T05:51:51;18.20;70.80
78876;DHT22;68253;52.506;5.486;2023-07-13T05:54:18;18.20;70.80
78876;DHT22;68253;52.506;5.486;2023-07-13T05:56:44;18.20;70.70
78876;DHT22;68253;52.506;5.486;2023-07-13T05:59:10;18.20;70.70
78876;DHT22;68253;52.506;5.486;2023-07-13T06:01:36;18.20;70.70
78876;DHT22;68253;52.506;5.486;2023-07-13T06:04:03;18.30;70.70
78876;DHT22;68253;52.506;5.486;2023-07-13T06:06:29;18.30;70.80
78876;DHT22;68253;52.506;5.486;2023-07-13T06:08:55;18.30;70.80
78876;DHT22;68253;52.506;5.486;2023-07-13T06:11:26;18.30;70.90
78876;DHT22;68253;52.506;5.486;2023-07-13T06:13:53;18.40;70.90
78876;DHT22;68253;52.506;5.486;2023-07-13T06:16:20;18.50;70.90
78876;DHT22;68253;52.506;5.486;2023-07-13T06:18:46;18.50;70.90
78876;DHT22;68253;52.506;5.486;2023-07-13T06:21:15;18.60;70.80
78876;DHT22;68253;52.506;5.486;2023-07-13T06:23:42;18.70;70.80
78876;DHT22;68253;52.506;5.486;2023-07-13T06:26:09;18.70;70.80
78876;DHT22;68253;52.506;5.486;2023-07-13T06:28:36;18.80;70.70
78876;DHT22;68253;52.506;5.486;2023-07-13T06:31:07;18.80;70.70
78876;DHT22;68253;52.506;5.486;2023-07-13T06:33:34;18.90;70.70
78876;DHT22;68253;52.506;5.486;2023-07-13T06:36:02;19.00;70.70
78876;DHT22;68253;52.506;5.486;2023-07-13T06:38:29;19.10;70.50
78876;DHT22;68253;52.506;5.486;2023-07-13T06:40:55;19.10;70.30
78876;DHT22;68253;52.506;5.486;2023-07-13T06:43:21;19.20;70.20
78876;DHT22;68253;52.506;5.486;2023-07-13T06:45:48;19.20;70.20
78876;DHT22;68253;52.506;5.486;2023-07-13T06:48:16;19.30;70.20
78876;DHT22;68253;52.506;5.486;2023-07-13T06:50:43;19.30;70.00
78876;DHT22;68253;52.506;5.486;2023-07-13T06:53:10;19.30;70.10
78876;DHT22;68253;52.506;5.486;2023-07-13T06:55:37;19.40;70.00
78876;DHT22;68253;52.506;5.486;2023-07-13T06:58:03;19.40;69.90
78876;DHT22;68253;52.506;5.486;2023-07-13T07:00:30;19.40;69.90
78876;DHT22;68253;52.506;5.486;2023-07-13T07:02:56;19.50;69.70
78876;DHT22;68253;52.506;5.486;2023-07-13T07:05:23;19.50;69.60
78876;DHT22;68253;52.506;5.486;2023-07-13T07:07:55;19.50;69.20
78876;DHT22;68253;52.506;5.486;2023-07-13T07:10:22;19.50;69.00
78876;DHT22;68253;52.506;5.486;2023-07-13T07:12:48;19.70;68.70
78876;DHT22;68253;52.506;5.486;2023-07-13T07:15:15;20.00;67.90
78876;DHT22;68253;52.506;5.486;2023-07-13T07:17:41;20.30;67.50
78876;DHT22;68253;52.506;5.486;2023-07-13T07:20:07;20.60;66.80
78876;DHT22;68253;52.506;5.486;2023-07-13T07:22:34;20.80;65.60
78876;DHT22;68253;52.506;5.486;2023-07-13T07:25:00;21.10;65.30
78876;DHT22;68253;52.506;5.486;2023-07-13T07:27:26;21.30;65.00
78876;DHT22;68253;52.506;5.486;2023-07-13T07:29:53;21.50;64.40
78876;DHT22;68253;52.506;5.486;2023-07-13T07:32:19;21.90;64.10
78876;DHT22;68253;52.506;5.486;2023-07-13T07:34:46;22.00;63.00
78876;DHT22;68253;52.506;5.486;2023-07-13T07:37:13;21.80;62.70
78876;DHT22;68253;52.506;5.486;2023-07-13T07:39:40;21.50;62.60
78876;DHT22;68253;52.506;5.486;2023-07-13T07:42:06;21.30;63.30
78876;DHT22;68253;52.506;5.486;2023-07-13T07:44:33;21.00;63.60
78876;DHT22;68253;52.506;5.486;2023-07-13T07:47:00;20.80;63.70
78876;DHT22;68253;52.506;5.486;2023-07-13T07:49:26;20.60;63.50
78876;DHT22;68253;52.506;5.486;2023-07-13T07:51:53;20.30;63.40
78876;DHT22;68253;52.506;5.486;2023-07-13T07:54:19;20.10;64.20
78876;DHT22;68253;52.506;5.486;2023-07-13T07:56:45;20.00;64.10
78876;DHT22;68253;52.506;5.486;2023-07-13T07:59:11;20.00;63.80
78876;DHT22;68253;52.506;5.486;2023-07-13T08:01:38;19.90;64.20
78876;DHT22;68253;52.506;5.486;2023-07-13T08:04:04;19.80;64.30
78876;DHT22;68253;52.506;5.486;2023-07-13T08:06:32;19.70;64.50
78876;DHT22;68253;52.506;5.486;2023-07-13T08:08:59;19.50;64.50
78876;DHT22;68253;52.506;5.486;2023-07-13T08:11:26;19.40;64.70
78876;DHT22;68253;52.506;5.486;2023-07-13T08:13:52;19.30;65.00
78876;DHT22;68253;52.506;5.486;2023-07-13T08:16:18;19.20;65.30
78876;DHT22;68253;52.506;5.486;2023-07-13T08:18:44;19.20;65.70
78876;DHT22;68253;52.506;5.486;2023-07-13T08:21:11;19.20;65.90
78876;DHT22;68253;52.506;5.486;2023-07-13T08:23:37;19.20;66.00
78876;DHT22;68253;52.506;5.486;2023-07-13T08:26:04;19.30;65.90
78876;DHT22;68253;52.506;5.486;2023-07-13T08:28:31;19.70;65.40
78876;DHT22;68253;52.506;5.486;2023-07-13T08:31:06;20.00;64.80
78876;DHT22;68253;52.506;5.486;2023-07-13T08:33:35;20.30;64.50
78876;DHT22;68253;52.506;5.486;2023-07-13T08:36:02;20.80;63.90
78876;DHT22;68253;52.506;5.486;2023-07-13T08:38:28;21.30;63.00
78876;DHT22;68253;52.506;5.486;2023-07-13T08:40:56;21.50;62.30
78876;DHT22;68253;52.506;5.486;2023-07-13T08:43:29;21.70;62.40
78876;DHT22;68253;52.506;5.486;2023-07-13T08:48:52;21.80;62.00
78876;DHT22;68253;52.506;5.486;2023-07-13T08:51:33;21.90;62.70
78876;DHT22;68253;52.506;5.486;2023-07-13T08:54:05;22.10;62.30
78876;DHT22;68253;52.506;5.486;2023-07-13T08:56:34;22.50;60.50
78876;DHT22;68253;52.506;5.486;2023-07-13T08:59:09;22.80;58.90
78876;DHT22;68253;52.506;5.486;2023-07-13T09:04:33;23.20;57.60
78876;DHT22;68253;52.506;5.486;2023-07-13T09:12:19;22.80;57.20
78876;DHT22;68253;52.506;5.486;2023-07-13T09:14:51;22.50;58.00
78876;DHT22;68253;52.506;5.486;2023-07-13T09:17:35;22.60;58.50
78876;DHT22;68253;52.506;5.486;2023-07-13T09:22:59;23.40;57.60
78876;DHT22;68253;52.506;5.486;2023-07-13T09:25:34;23.70;57.40
78876;DHT22;68253;52.506;5.486;2023-07-13T09:28:16;23.90;56.80
78876;DHT22;68253;52.506;5.486;2023-07-13T09:31:33;23.60;56.20
78876;DHT22;68253;52.506;5.486;2023-07-13T09:33:51;23.20;56.30
78876;DHT22;68253;52.506;5.486;2023-07-13T09:41:54;22.10;57.40
78876;DHT22;68253;52.506;5.486;2023-07-13T09:44:35;21.90;58.00
78876;DHT22;68253;52.506;5.486;2023-07-13T09:47:02;21.70;58.60
78876;DHT22;68253;52.506;5.486;2023-07-13T09:49:34;21.70;58.70
78876;DHT22;68253;52.506;5.486;2023-07-13T09:52:04;21.70;59.10
78876;DHT22;68253;52.506;5.486;2023-07-13T09:54:34;21.90;58.30
78876;DHT22;68253;52.506;5.486;2023-07-13T09:57:01;22.10;57.40
78876;DHT22;68253;52.506;5.486;2023-07-13T09:59:34;22.50;57.00
78876;DHT22;68253;52.506;5.486;2023-07-13T10:02:00;22.90;56.70
78876;DHT22;68253;52.506;5.486;2023-07-13T10:04:36;23.20;55.90
78876;DHT22;68253;52.506;5.486;2023-07-13T10:07:12;23.60;54.80
78876;DHT22;68253;52.506;5.486;2023-07-13T10:09:39;23.90;54.20
78876;DHT22;68253;52.506;5.486;2023-07-13T10:12:14;24.20;54.20
78876;DHT22;68253;52.506;5.486;2023-07-13T10:14:42;24.40;53.90
78876;DHT22;68253;52.506;5.486;2023-07-13T10:17:12;24.20;53.80
78876;DHT22;68253;52.506;5.486;2023-07-13T10:19:41;24.30;54.40
78876;DHT22;68253;52.506;5.486;2023-07-13T10:22:37;24.50;54.00
78876;DHT22;68253;52.506;5.486;2023-07-13T10:25:21;24.90;53.40
78876;DHT22;68253;52.506;5.486;2023-07-13T10:27:53;25.20;51.70
78876;DHT22;68253;52.506;5.486;2023-07-13T10:30:30;25.10;52.50
78876;DHT22;68253;52.506;5.486;2023-07-13T10:33:03;25.00;52.60
78876;DHT22;68253;52.506;5.486;2023-07-13T10:35:30;25.20;52.70
78876;DHT22;68253;52.506;5.486;2023-07-13T10:38:02;25.40;51.50
78876;DHT22;68253;52.506;5.486;2023-07-13T10:40:43;25.50;51.30
78876;DHT22;68253;52.506;5.486;2023-07-13T10:43:18;25.50;51.50
78876;DHT22;68253;52.506;5.486;2023-07-13T10:45:47;25.60;51.90
78876;DHT22;68253;52.506;5.486;2023-07-13T10:48:16;25.70;51.60
78876;DHT22;68253;52.506;5.486;2023-07-13T10:50:44;25.80;51.20
78876;DHT22;68253;52.506;5.486;2023-07-13T10:53:20;25.80;50.70
78876;DHT22;68253;52.506;5.486;2023-07-13T10:58:43;25.90;50.90
78876;DHT22;68253;52.506;5.486;2023-07-13T11:06:30;26.60;51.10
78876;DHT22;68253;52.506;5.486;2023-07-13T11:11:49;27.00;49.50
78876;DHT22;68253;52.506;5.486;2023-07-13T11:16:53;26.80;49.90
78876;DHT22;68253;52.506;5.486;2023-07-13T11:25:00;27.20;50.00
78876;DHT22;68253;52.506;5.486;2023-07-13T11:27:42;27.30;49.10
78876;DHT22;68253;52.506;5.486;2023-07-13T11:30:19;27.20;49.90
78876;DHT22;68253;52.506;5.486;2023-07-13T11:32:51;27.20;50.30
78876;DHT22;68253;52.506;5.486;2023-07-13T11:35:26;27.40;49.60
78876;DHT22;68253;52.506;5.486;2023-07-13T11:37:53;27.50;49.70
78876;DHT22;68253;52.506;5.486;2023-07-13T11:40:22;27.80;49.40
78876;DHT22;68253;52.506;5.486;2023-07-13T11:42:50;27.80;48.30
78876;DHT22;68253;52.506;5.486;2023-07-13T11:45:21;27.70;48.30
78876;DHT22;68253;52.506;5.486;2023-07-13T11:47:51;27.50;48.80
78876;DHT22;68253;52.506;5.486;2023-07-13T11:50:22;27.50;49.20
78876;DHT22;68253;52.506;5.486;2023-07-13T11:52:50;27.50;49.50
78876;DHT22;68253;52.506;5.486;2023-07-13T11:55:21;27.60;49.30
78876;DHT22;68253;52.506;5.486;2023-07-13T11:57:56;27.80;48.50
78876;DHT22;68253;52.506;5.486;2023-07-13T12:00:27;27.80;48.20
78876;DHT22;68253;52.506;5.486;2023-07-13T12:02:56;27.80;48.30
78876;DHT22;68253;52.506;5.486;2023-07-13T12:05:25;27.70;47.80
78876;DHT22;68253;52.506;5.486;2023-07-13T12:07:54;27.70;48.50
78876;DHT22;68253;52.506;5.486;2023-07-13T12:10:29;27.70;48.90
78876;DHT22;68253;52.506;5.486;2023-07-13T12:13:00;27.80;48.40
78876;DHT22;68253;52.506;5.486;2023-07-13T12:15:46;27.90;48.30
78876;DHT22;68253;52.506;5.486;2023-07-13T12:18:23;28.00;48.50
78876;DHT22;68253;52.506;5.486;2023-07-13T12:20:51;28.00;47.90
78876;DHT22;68253;52.506;5.486;2023-07-13T12:23:32;28.00;47.70
78876;DHT22;68253;52.506;5.486;2023-07-13T12:26:02;27.80;47.70
78876;DHT22;68253;52.506;5.486;2023-07-13T12:28:35;27.60;47.70
78876;DHT22;68253;52.506;5.486;2023-07-13T12:33:57;27.50;48.20
78876;DHT22;68253;52.506;5.486;2023-07-13T12:36:24;27.50;48.30
78876;DHT22;68253;52.506;5.486;2023-07-13T12:38:51;27.50;48.60
78876;DHT22;68253;52.506;5.486;2023-07-13T12:41:17;27.70;48.30
78876;DHT22;68253;52.506;5.486;2023-07-13T12:43:45;27.80;48.20
78876;DHT22;68253;52.506;5.486;2023-07-13T12:46:24;27.80;48.80
78876;DHT22;68253;52.506;5.486;2023-07-13T12:48:53;28.00;49.20
78876;DHT22;68253;52.506;5.486;2023-07-13T12:51:25;28.20;47.90
78876;DHT22;68253;52.506;5.486;2023-07-13T12:54:18;28.30;48.10
78876;DHT22;68253;52.506;5.486;2023-07-13T12:56:45;28.30;48.10
78876;DHT22;68253;52.506;5.486;2023-07-13T12:59:20;28.30;48.50
78876;DHT22;68253;52.506;5.486;2023-07-13T13:01:49;28.50;47.10
78876;DHT22;68253;52.506;5.486;2023-07-13T13:04:16;28.50;47.90
78876;DHT22;68253;52.506;5.486;2023-07-13T13:06:43;28.60;47.70
78876;DHT22;68253;52.506;5.486;2023-07-13T13:09:14;28.60;47.10
78876;DHT22;68253;52.506;5.486;2023-07-13T13:11:41;28.50;47.80
78876;DHT22;68253;52.506;5.486;2023-07-13T13:14:08;28.30;47.40
78876;DHT22;68253;52.506;5.486;2023-07-13T13:16:35;28.30;47.20
78876;DHT22;68253;52.506;5.486;2023-07-13T13:19:26;28.30;47.90
78876;DHT22;68253;52.506;5.486;2023-07-13T13:21:54;28.20;47.90
78876;DHT22;68253;52.506;5.486;2023-07-13T13:24:24;28.10;47.80
78876;DHT22;68253;52.506;5.486;2023-07-13T13:26:52;28.10;47.50
78876;DHT22;68253;52.506;5.486;2023-07-13T13:29:21;27.90;48.20
78876;DHT22;68253;52.506;5.486;2023-07-13T13:31:50;27.90;48.70
78876;DHT22;68253;52.506;5.486;2023-07-13T13:34:17;27.90;48.30
78876;DHT22;68253;52.506;5.486;2023-07-13T13:36:45;27.90;47.90
78876;DHT22;68253;52.506;5.486;2023-07-13T13:39:45;27.80;48.20
78876;DHT22;68253;52.506;5.486;2023-07-13T13:42:11;27.60;49.10
78876;DHT22;68253;52.506;5.486;2023-07-13T13:44:37;27.60;48.70
78876;DHT22;68253;52.506;5.486;2023-07-13T13:47:04;27.60;49.10
78876;DHT22;68253;52.506;5.486;2023-07-13T13:49:30;27.70;49.30
78876;DHT22;68253;52.506;5.486;2023-07-13T13:51:57;27.90;49.50
78876;DHT22;68253;52.506;5.486;2023-07-13T13:54:24;28.00;49.00
78876;DHT22;68253;52.506;5.486;2023-07-13T13:56:52;28.00;49.50
78876;DHT22;68253;52.506;5.486;2023-07-13T13:59:19;28.00;49.30
78876;DHT22;68253;52.506;5.486;2023-07-13T14:01:46;27.90;48.60
78876;DHT22;68253;52.506;5.486;2023-07-13T14:04:20;27.80;49.10
78876;DHT22;68253;52.506;5.486;2023-07-13T14:06:47;27.70;48.90
78876;DHT22;68253;52.506;5.486;2023-07-13T14:09:16;27.70;49.70
78876;DHT22;68253;52.506;5.486;2023-07-13T14:11:44;27.60;49.60
78876;DHT22;68253;52.506;5.486;2023-07-13T14:14:20;27.60;49.60
78876;DHT22;68253;52.506;5.486;2023-07-13T14:16:49;27.50;49.70
78876;DHT22;68253;52.506;5.486;2023-07-13T14:19:19;27.50;49.20
78876;DHT22;68253;52.506;5.486;2023-07-13T14:21:46;27.40;49.80
78876;DHT22;68253;52.506;5.486;2023-07-13T14:24:13;27.40;49.40
78876;DHT22;68253;52.506;5.486;2023-07-13T14:26:41;27.20;49.20
78876;DHT22;68253;52.506;5.486;2023-07-13T14:29:15;27.00;50.00
78876;DHT22;68253;52.506;5.486;2023-07-13T14:31:43;27.00;50.00
78876;DHT22;68253;52.506;5.486;2023-07-13T14:34:11;27.00;49.80
78876;DHT22;68253;52.506;5.486;2023-07-13T14:36:43;27.10;49.50
78876;DHT22;68253;52.506;5.486;2023-07-13T14:39:23;27.10;50.00
78876;DHT22;68253;52.506;5.486;2023-07-13T14:41:54;27.00;49.80
78876;DHT22;68253;52.506;5.486;2023-07-13T14:44:29;26.90;49.50
78876;DHT22;68253;52.506;5.486;2023-07-13T14:46:57;26.80;50.00
78876;DHT22;68253;52.506;5.486;2023-07-13T14:49:30;26.80;50.70
78876;DHT22;68253;52.506;5.486;2023-07-13T14:51:59;26.90;50.00
78876;DHT22;68253;52.506;5.486;2023-07-13T14:54:27;26.90;50.50
78876;DHT22;68253;52.506;5.486;2023-07-13T14:56:53;26.80;50.40
78876;DHT22;68253;52.506;5.486;2023-07-13T14:59:19;26.80;50.60
78876;DHT22;68253;52.506;5.486;2023-07-13T15:01:47;26.90;50.40
78876;DHT22;68253;52.506;5.486;2023-07-13T15:04:14;26.80;50.40
78876;DHT22;68253;52.506;5.486;2023-07-13T15:07:01;26.80;50.40
78876;DHT22;68253;52.506;5.486;2023-07-13T15:09:28;26.70;51.00
78876;DHT22;68253;52.506;5.486;2023-07-13T15:11:58;26.60;51.00
78876;DHT22;68253;52.506;5.486;2023-07-13T15:14:25;26.50;51.20
78876;DHT22;68253;52.506;5.486;2023-07-13T15:16:54;26.50;51.30
78876;DHT22;68253;52.506;5.486;2023-07-13T15:19:22;26.50;51.20
78876;DHT22;68253;52.506;5.486;2023-07-13T15:21:49;26.40;51.20
78876;DHT22;68253;52.506;5.486;2023-07-13T15:24:16;26.40;51.40
78876;DHT22;68253;52.506;5.486;2023-07-13T15:26:42;26.20;51.40
78876;DHT22;68253;52.506;5.486;2023-07-13T15:29:11;26.20;51.80
78876;DHT22;68253;52.506;5.486;2023-07-13T15:31:38;26.20;51.20
78876;DHT22;68253;52.506;5.486;2023-07-13T15:34:24;26.10;50.70
78876;DHT22;68253;52.506;5.486;2023-07-13T15:36:52;26.00;51.20
78876;DHT22;68253;52.506;5.486;2023-07-13T15:39:18;25.80;51.60
78876;DHT22;68253;52.506;5.486;2023-07-13T15:41:45;25.90;51.20
78876;DHT22;68253;52.506;5.486;2023-07-13T15:44:33;26.00;51.20
78876;DHT22;68253;52.506;5.486;2023-07-13T15:46:59;26.00;51.20
78876;DHT22;68253;52.506;5.486;2023-07-13T15:49:29;26.00;50.60
78876;DHT22;68253;52.506;5.486;2023-07-13T15:51:55;25.80;51.10
78876;DHT22;68253;52.506;5.486;2023-07-13T15:54:22;25.80;51.10
78876;DHT22;68253;52.506;5.486;2023-07-13T15:56:54;25.60;51.00
78876;DHT22;68253;52.506;5.486;2023-07-13T15:59:22;25.50;51.30
78876;DHT22;68253;52.506;5.486;2023-07-13T16:01:48;25.40;51.60
78876;DHT22;68253;52.506;5.486;2023-07-13T16:04:15;25.30;51.90
78876;DHT22;68253;52.506;5.486;2023-07-13T16:06:43;25.20;51.70
78876;DHT22;68253;52.506;5.486;2023-07-13T16:09:23;25.00;52.10
78876;DHT22;68253;52.506;5.486;2023-07-13T16:11:50;25.00;52.30
78876;DHT22;68253;52.506;5.486;2023-07-13T16:14:17;24.80;52.20
78876;DHT22;68253;52.506;5.486;2023-07-13T16:16:44;24.70;52.30
78876;DHT22;68253;52.506;5.486;2023-07-13T16:19:11;24.60;52.90
78876;DHT22;68253;52.506;5.486;2023-07-13T16:21:44;24.60;53.10
78876;DHT22;68253;52.506;5.486;2023-07-13T16:24:19;24.50;53.30
78876;DHT22;68253;52.506;5.486;2023-07-13T16:26:47;24.50;53.60